Time;durP1;ratioP1;P1;durP2;ratioP2;P2;SDS_P1;SDS_P2;PMS_P1;PMS_P2;Temp;Humidity;BMP_temperature;BMP_pressure;BME280_temperature;BME280_humidity;BME280_pressure;Samples;Min_cycle;Max_cycle;Signal;HPM_P1;HPM_P2
2021/12/19 00:01:07;;;;;;;87.50;30.80;;;8.20;99.90;;;;;;6334876;22;20029;-69
2021/12/19 00:08:53;;;;;;;79.80;29.35;;;8.40;99.90;;;;;;6336630;22;20041;-70
2021/12/19 00:11:25;;;;;;;84.03;30.40;;;8.40;99.90;;;;;;6336640;22;19999;-70
2021/12/19 00:13:51;;;;;;;78.82;30.42;;;8.50;99.90;;;;;;6337159;22;19999;-70
2021/12/19 00:16:17;;;;;;;82.03;29.95;;;8.50;99.90;;;;;;6336591;22;19999;-71
2021/12/19 00:18:43;;;;;;;81.50;30.88;;;8.60;99.90;;;;;;6335590;22;20055;-70
2021/12/19 00:21:15;;;;;;;87.15;31.33;;;8.60;99.90;;;;;;6336515;22;20064;-70
2021/12/19 00:23:42;;;;;;;92.40;32.60;;;8.50;99.90;;;;;;6336243;22;19995;-69
2021/12/19 00:26:08;;;;;;;98.03;32.33;;;8.30;99.90;;;;;;6334982;22;19998;-69
2021/12/19 00:28:34;;;;;;;94.18;31.58;;;8.20;99.90;;;;;;6337151;22;20013;-69
2021/12/19 00:31:00;;;;;;;;;;;8.10;99.90;;;;;;6336609;22;20013;-72
2021/12/19 00:33:26;;;;;;;90.88;30.95;;;8.30;99.90;;;;;;6334587;22;19922;-70
2021/12/19 00:35:52;;;;;;;88.05;30.58;;;8.30;99.90;;;;;;6336839;22;19995;-70
2021/12/19 00:38:18;;;;;;;96.70;31.02;;;8.40;99.90;;;;;;6337054;22;20037;-70
2021/12/19 00:40:44;;;;;;;82.22;28.63;;;8.30;99.90;;;;;;6336705;22;19995;-71
2021/12/19 00:43:21;;;;;;;82.07;29.05;;;8.30;99.90;;;;;;6336859;22;20002;-71
2021/12/19 00:45:49;;;;;;;77.10;27.40;;;8.30;99.90;;;;;;6335973;22;20115;-71
2021/12/19 00:48:16;;;;;;;79.03;27.63;;;8.40;99.90;;;;;;6337294;22;20007;-70
2021/12/19 00:50:42;;;;;;;77.82;26.90;;;8.50;99.90;;;;;;6334688;22;20056;-70
2021/12/19 00:53:08;;;;;;;83.53;28.05;;;8.50;99.90;;;;;;6335659;22;20334;-71
2021/12/19 00:55:35;;;;;;;87.65;29.40;;;8.60;99.90;;;;;;6337425;22;20006;-70
2021/12/19 00:58:01;;;;;;;85.18;28.52;;;8.50;99.90;;;;;;6337451;22;20022;-71
2021/12/19 01:00:29;;;;;;;;;;;8.50;99.90;;;;;;6335007;22;20073;-70
2021/12/19 01:02:58;;;;;;;87.65;27.27;;;8.40;99.90;;;;;;6336193;22;19985;-70
2021/12/19 01:05:29;;;;;;;86.32;27.65;;;8.30;99.90;;;;;;6335556;22;20301;-71
2021/12/19 01:07:56;;;;;;;84.75;27.55;;;8.30;99.90;;;;;;6336592;22;20066;-71
2021/12/19 01:10:23;;;;;;;81.93;26.90;;;8.30;99.90;;;;;;6336017;22;20045;-70
2021/12/19 01:12:49;;;;;;;87.05;26.80;;;8.30;99.90;;;;;;6334547;22;20021;-72
2021/12/19 01:15:16;;;;;;;89.20;26.35;;;8.20;99.90;;;;;;6335662;22;20003;-69
2021/12/19 01:17:43;;;;;;;83.57;25.13;;;8.20;99.90;;;;;;6336160;22;19999;-71
2021/12/19 01:20:15;;;;;;;81.88;24.30;;;8.10;99.90;;;;;;6334741;22;20014;-70
2021/12/19 01:22:42;;;;;;;90.50;26.02;;;8.10;99.90;;;;;;6336307;22;20009;-71
2021/12/19 01:25:08;;;;;;;82.55;25.00;;;8.00;99.90;;;;;;6336938;22;20026;-71
2021/12/19 01:27:34;;;;;;;77.38;24.63;;;8.10;99.90;;;;;;6336934;22;20216;-70
2021/12/19 01:30:00;;;;;;;79.10;23.92;;;8.20;99.90;;;;;;6337822;22;20083;-71
2021/12/19 01:32:25;;;;;;;81.63;23.88;;;8.10;99.90;;;;;;6336428;22;20040;-70
2021/12/19 01:34:51;;;;;;;76.68;22.98;;;8.10;99.90;;;;;;6335879;22;20029;-70
2021/12/19 01:37:17;;;;;;;81.38;23.13;;;8.10;99.90;;;;;;6336390;22;19995;-71
2021/12/19 01:39:43;;;;;;;78.90;23.17;;;8.00;99.90;;;;;;6335050;22;19995;-70
2021/12/19 01:42:11;;;;;;;76.35;23.33;;;8.10;99.90;;;;;;6337078;22;19995;-70
2021/12/19 01:44:37;;;;;;;86.28;23.90;;;8.00;99.90;;;;;;6335789;22;20023;-70
2021/12/19 01:47:03;;;;;;;;;;;8.00;99.90;;;;;;6335657;22;19999;-71
2021/12/19 01:49:29;;;;;;;75.93;23.30;;;8.00;99.90;;;;;;6336326;22;19981;-70
2021/12/19 01:51:54;;;;;;;81.45;23.58;;;8.10;99.90;;;;;;6335016;22;19999;-71
2021/12/19 01:54:20;;;;;;;85.50;25.30;;;8.10;99.90;;;;;;6336968;22;20003;-69
2021/12/19 01:56:46;;;;;;;84.55;23.95;;;7.90;99.90;;;;;;6335693;22;20208;-70
2021/12/19 01:59:12;;;;;;;86.88;24.63;;;7.90;99.90;;;;;;6335299;22;20491;-70
2021/12/19 02:01:51;;;;;;;80.32;24.15;;;7.90;99.90;;;;;;6335681;22;20097;-71
2021/12/19 02:04:18;;;;;;;76.53;22.75;;;8.00;99.90;;;;;;6336056;22;20627;-70
2021/12/19 02:06:44;;;;;;;74.57;24.08;;;8.00;99.90;;;;;;6331539;22;19999;-70
2021/12/19 02:09:10;;;;;;;;;;;8.00;99.90;;;;;;6336196;22;20021;-71
2021/12/19 02:11:39;;;;;;;72.13;21.35;;;8.10;99.90;;;;;;6308557;22;19902;-70
2021/12/19 02:14:06;;;;;;;77.43;22.80;;;8.00;99.90;;;;;;6308319;22;20037;-70
2021/12/19 02:16:32;;;;;;;71.50;22.20;;;7.90;99.90;;;;;;6336055;22;20055;-70
2021/12/19 02:18:58;;;;;;;;;;;7.90;99.90;;;;;;6336087;22;20122;-71
2021/12/19 02:21:24;;;;;;;82.03;22.08;;;7.90;99.90;;;;;;6336400;22;20266;-70
2021/12/19 02:23:50;;;;;;;;;;;7.80;99.90;;;;;;6336351;22;20005;-73
2021/12/19 02:26:16;;;;;;;80.88;22.65;;;7.70;99.90;;;;;;6335446;22;20350;-70
2021/12/19 02:28:42;;;;;;;70.72;22.13;;;7.80;99.90;;;;;;6335563;22;20303;-70
2021/12/19 02:31:08;;;;;;;80.63;22.88;;;7.80;99.90;;;;;;6335271;22;20030;-71
2021/12/19 02:33:42;;;;;;;73.07;22.27;;;7.70;99.90;;;;;;6334477;22;20060;-71
2021/12/19 02:49:23;;;;;;;56.50;18.27;;;7.60;99.90;;;;;;6335345;22;20032;-71
2021/12/19 02:51:51;;;;;;;57.15;19.88;;;7.50;99.90;;;;;;6306130;22;20010;-71
2021/12/19 02:54:17;;;;;;;57.47;18.95;;;7.40;99.90;;;;;;6335604;22;20001;-71
2021/12/19 02:56:43;;;;;;;65.50;19.23;;;7.50;99.90;;;;;;6306898;22;20070;-71
2021/12/19 02:59:09;;;;;;;57.55;18.48;;;7.60;99.90;;;;;;6333126;22;19999;-71
2021/12/19 03:01:35;;;;;;;54.28;18.30;;;7.70;99.90;;;;;;6331458;22;20059;-71
2021/12/19 03:04:00;;;;;;;65.53;20.33;;;7.80;99.90;;;;;;6334701;22;20074;-70
2021/12/19 03:06:26;;;;;;;57.28;19.00;;;7.80;99.90;;;;;;6332390;22;20418;-71
2021/12/19 03:08:53;;;;;;;59.42;20.42;;;7.80;99.90;;;;;;6334660;22;20014;-71
2021/12/19 03:19:41;;;;;;;56.85;19.05;;;7.80;99.90;;;;;;6285465;22;19998;-70
2021/12/19 03:22:07;;;;;;;61.35;20.42;;;7.90;99.90;;;;;;6334488;22;20053;-70
2021/12/19 03:24:32;;;;;;;72.50;21.35;;;7.90;99.90;;;;;;6334334;22;20022;-70
2021/12/19 03:26:58;;;;;;;72.00;21.40;;;7.80;99.90;;;;;;6333636;22;20010;-70
2021/12/19 03:29:24;;;;;;;68.50;20.73;;;7.70;99.90;;;;;;6335778;22;20006;-71
2021/12/19 03:31:50;;;;;;;70.65;21.17;;;7.70;99.90;;;;;;6333111;22;19998;-70
2021/12/19 03:34:15;;;;;;;68.55;20.65;;;7.70;99.90;;;;;;6335017;22;19991;-70
2021/12/19 03:36:41;;;;;;;73.80;20.75;;;7.70;99.90;;;;;;6334861;22;20027;-71
2021/12/19 03:39:14;;;;;;;63.42;20.45;;;7.60;99.90;;;;;;6333317;22;20003;-71
2021/12/19 03:41:42;;;;;;;73.15;21.48;;;7.50;99.90;;;;;;6335003;22;20411;-69
2021/12/19 03:44:08;;;;;;;64.20;19.95;;;7.50;99.90;;;;;;6334560;22;20418;-71
2021/12/19 03:46:35;;;;;;;60.10;20.17;;;7.60;99.90;;;;;;6332870;22;19998;-71
2021/12/19 03:49:00;;;;;;;69.30;20.20;;;7.70;99.90;;;;;;6333869;22;20003;-70
2021/12/19 03:51:26;;;;;;;63.45;19.58;;;7.60;99.90;;;;;;6334481;22;20025;-71
2021/12/19 03:53:52;;;;;;;65.72;21.25;;;7.70;99.90;;;;;;6333844;22;19995;-71
2021/12/19 03:56:17;;;;;;;65.72;20.27;;;7.60;99.90;;;;;;6335330;22;19999;-71
2021/12/19 03:58:43;;;;;;;65.95;20.80;;;7.50;99.90;;;;;;6333346;22;20042;-71
2021/12/19 04:01:10;;;;;;;65.60;19.73;;;7.40;99.90;;;;;;6335265;22;20003;-71
2021/12/19 04:03:36;;;;;;;65.30;18.90;;;7.40;99.90;;;;;;6334407;22;20074;-71
2021/12/19 04:06:03;;;;;;;65.32;19.77;;;7.40;99.90;;;;;;6334561;22;19995;-70
2021/12/19 04:08:29;;;;;;;65.10;19.00;;;7.30;99.90;;;;;;6334717;22;20083;-70
2021/12/19 04:10:55;;;;;;;77.95;19.08;;;7.30;99.90;;;;;;6334274;22;20003;-71
2021/12/19 04:13:22;;;;;;;;;;;7.20;99.90;;;;;;6334512;22;19995;-70
2021/12/19 04:15:49;;;;;;;64.28;17.20;;;7.20;99.90;;;;;;6336731;22;19898;-70
2021/12/19 04:18:15;;;;;;;56.00;16.02;;;7.20;99.90;;;;;;6334970;22;20029;-71
2021/12/19 04:20:41;;;;;;;66.28;17.27;;;7.00;99.90;;;;;;6335249;22;19997;-71
2021/12/19 04:23:07;;;;;;;64.32;18.52;;;7.10;99.90;;;;;;6336117;22;20006;-70
2021/12/19 04:25:33;;;;;;;63.20;18.65;;;7.10;99.90;;;;;;6335339;22;19998;-71
2021/12/19 04:27:58;;;;;;;71.13;17.77;;;7.20;99.90;;;;;;6337190;22;20066;-70
2021/12/19 04:30:26;;;;;;;52.97;16.75;;;7.30;99.90;;;;;;6337153;22;20003;-73
2021/12/19 04:33:02;;;;;;;58.38;17.60;;;7.30;99.90;;;;;;6307759;22;20015;-70
2021/12/19 04:35:32;;;;;;;57.08;17.15;;;7.20;99.90;;;;;;6337531;22;20295;-70
2021/12/19 05:15:47;;;;;;;62.58;14.00;;;7.00;99.90;;;;;;6336368;22;20052;-70
2021/12/19 05:18:13;;;;;;;64.03;15.30;;;7.00;99.90;;;;;;6334723;22;20272;-69
2021/12/19 05:20:49;;;;;;;53.25;14.65;;;6.90;99.90;;;;;;6336099;22;19995;-71
2021/12/19 05:23:26;;;;;;;61.33;14.88;;;6.80;99.90;;;;;;6336042;22;20445;-70
2021/12/19 05:25:52;;;;;;;55.17;15.43;;;6.80;99.90;;;;;;6334675;22;20484;-69
2021/12/19 05:28:18;;;;;;;59.22;14.43;;;6.90;99.90;;;;;;6336075;22;19999;-70
2021/12/19 05:30:44;;;;;;;52.55;13.63;;;6.80;99.90;;;;;;6336649;22;19995;-70
2021/12/19 05:33:09;;;;;;;46.70;14.43;;;6.80;99.90;;;;;;6335826;22;19998;-70
2021/12/19 05:46:33;;;;;;;40.28;12.27;;;7.10;99.90;;;;;;6334644;22;20080;-70
2021/12/19 05:48:59;;;;;;;44.45;12.43;;;7.10;99.90;;;;;;6341587;22;20002;-70
2021/12/19 05:51:25;;;;;;;43.70;11.32;;;7.10;99.90;;;;;;6338994;22;20007;-69
2021/12/19 05:53:50;;;;;;;45.13;11.25;;;7.10;99.90;;;;;;6334821;22;19995;-70
2021/12/19 05:56:16;;;;;;;36.92;11.27;;;6.90;99.90;;;;;;6335921;22;20026;-70
2021/12/19 05:58:41;;;;;;;42.40;10.57;;;6.80;99.90;;;;;;6334073;22;20450;-70
2021/12/19 06:01:07;;;;;;;44.00;11.45;;;6.90;99.90;;;;;;6334133;22;20006;-68
2021/12/19 06:03:33;;;;;;;46.22;12.73;;;6.80;99.90;;;;;;6335697;22;19999;-71
2021/12/19 06:05:59;;;;;;;42.00;12.15;;;6.90;99.90;;;;;;6334617;22;20002;-70
2021/12/19 06:08:24;;;;;;;35.90;11.15;;;6.90;99.90;;;;;;6307548;22;20034;-70
2021/12/19 06:10:50;;;;;;;34.33;10.07;;;6.80;99.90;;;;;;6336352;22;20307;-71
2021/12/19 06:13:16;;;;;;;35.75;10.93;;;6.70;99.90;;;;;;6334352;22;20441;-70
2021/12/19 06:15:41;;;;;;;35.80;10.90;;;6.70;99.90;;;;;;6335753;22;20002;-70
2021/12/19 06:18:07;;;;;;;36.42;10.65;;;6.70;99.90;;;;;;6335040;22;20014;-70
2021/12/19 06:20:33;;;;;;;31.55;10.05;;;6.70;99.90;;;;;;6333683;22;19998;-70
2021/12/19 06:23:00;;;;;;;30.48;9.82;;;6.90;99.90;;;;;;6335178;22;20410;-71
2021/12/19 06:25:26;;;;;;;28.08;10.05;;;6.70;99.90;;;;;;6333839;22;19991;-71
2021/12/19 06:27:51;;;;;;;30.70;9.10;;;6.70;99.90;;;;;;6335257;22;20002;-70
2021/12/19 06:30:17;;;;;;;25.00;9.18;;;6.70;99.90;;;;;;6334765;22;20009;-70
2021/12/19 06:32:43;;;;;;;23.50;8.50;;;6.70;99.90;;;;;;6333972;22;19995;-70
2021/12/19 06:35:17;;;;;;;26.02;9.23;;;6.80;99.90;;;;;;6335512;22;20065;-70
2021/12/19 06:37:44;;;;;;;25.45;8.68;;;6.90;99.90;;;;;;6334513;22;20094;-72
2021/12/19 06:40:12;;;;;;;27.85;7.75;;;6.90;99.90;;;;;;6333238;22;19998;-70
2021/12/19 06:42:38;;;;;;;33.15;7.53;;;6.90;99.90;;;;;;6335085;22;20067;-71
2021/12/19 06:45:05;;;;;;;22.30;8.00;;;6.80;99.90;;;;;;6334100;22;20411;-70
2021/12/19 06:47:31;;;;;;;17.73;7.07;;;6.70;99.90;;;;;;6335408;22;19999;-70
2021/12/19 06:49:57;;;;;;;24.10;7.40;;;6.80;99.90;;;;;;6307200;22;20248;-71
2021/12/19 06:52:23;;;;;;;;;;;6.90;99.90;;;;;;6334554;22;20431;-71
2021/12/19 06:54:48;;;;;;;17.50;6.63;;;6.90;99.90;;;;;;6335335;22;19973;-71
2021/12/19 06:57:14;;;;;;;17.60;7.40;;;6.90;99.90;;;;;;6334777;22;20007;-73
2021/12/19 06:59:40;;;;;;;16.88;7.05;;;6.90;99.90;;;;;;6333266;22;20377;-71
2021/12/19 07:02:05;;;;;;;21.25;7.13;;;6.90;99.90;;;;;;6335161;22;20048;-70
2021/12/19 07:04:31;;;;;;;21.58;7.90;;;6.80;99.90;;;;;;6334858;22;20006;-70
2021/12/19 07:06:57;;;;;;;23.10;7.80;;;6.80;99.90;;;;;;6334210;22;20476;-70
2021/12/19 07:09:23;;;;;;;20.10;6.82;;;6.70;99.90;;;;;;6305893;22;20014;-70
2021/12/19 07:11:48;;;;;;;19.13;6.85;;;6.70;99.90;;;;;;6332269;22;20334;-69
2021/12/19 07:14:14;;;;;;;18.25;6.07;;;6.60;99.90;;;;;;6334592;22;20275;-71
2021/12/19 07:16:40;;;;;;;19.27;6.55;;;6.70;99.90;;;;;;6333050;22;19998;-72
2021/12/19 07:19:06;;;;;;;22.48;4.78;;;6.50;99.90;;;;;;6333338;22;20002;-70
2021/12/19 07:21:31;;;;;;;23.55;5.82;;;6.40;99.90;;;;;;6335499;22;19995;-70
2021/12/19 07:23:57;;;;;;;19.83;5.40;;;6.30;99.90;;;;;;6334690;22;20529;-71
2021/12/19 07:26:23;;;;;;;15.63;5.57;;;6.30;99.90;;;;;;6334942;22;20044;-70
2021/12/19 07:28:50;;;;;;;;;;;6.30;99.90;;;;;;6335777;22;20073;-70
2021/12/19 07:31:21;;;;;;;14.90;5.63;;;6.40;99.90;;;;;;6335574;22;20288;-70
2021/12/19 07:33:46;;;;;;;17.92;6.30;;;6.30;99.90;;;;;;6335757;22;20044;-70
2021/12/19 07:36:14;;;;;;;19.95;6.32;;;6.30;99.90;;;;;;6309112;22;20027;-71
2021/12/19 07:38:52;;;;;;;13.35;5.40;;;6.20;99.90;;;;;;6334492;22;20373;-71
2021/12/19 07:41:18;;;;;;;13.82;6.00;;;6.40;99.90;;;;;;6336457;22;20003;-72
2021/12/19 07:43:44;;;;;;;11.02;4.75;;;6.50;99.90;;;;;;6337602;22;20052;-70
2021/12/19 07:46:10;;;;;;;21.52;6.50;;;6.50;99.90;;;;;;6334175;22;20006;-70
2021/12/19 07:48:35;;;;;;;12.52;5.53;;;6.60;99.90;;;;;;6334848;22;20027;-70
2021/12/19 07:51:01;;;;;;;15.18;5.00;;;6.60;99.90;;;;;;6336614;22;20007;-70
2021/12/19 07:53:27;;;;;;;15.30;5.53;;;6.40;99.90;;;;;;6335600;22;19999;-70
2021/12/19 07:55:53;;;;;;;12.48;5.03;;;6.20;99.90;;;;;;6336383;22;20052;-72
2021/12/19 07:58:19;;;;;;;;;;;6.20;99.90;;;;;;6336430;22;20029;-71
2021/12/19 08:00:44;;;;;;;19.10;5.00;;;6.20;99.90;;;;;;6308198;22;19938;-72
2021/12/19 08:03:10;;;;;;;12.75;4.78;;;6.20;99.90;;;;;;6336242;22;20073;-71
2021/12/19 08:05:36;;;;;;;9.93;4.43;;;6.20;99.90;;;;;;6335819;22;19991;-70
2021/12/19 08:08:04;;;;;;;9.57;3.60;;;6.20;99.90;;;;;;6336665;22;19998;-71
2021/12/19 08:13:09;;;;;;;8.13;3.72;;;6.20;99.90;;;;;;6336806;22;20009;-70
2021/12/19 08:15:36;;;;;;;7.03;3.90;;;6.30;99.90;;;;;;6311407;22;20097;-72
2021/12/19 08:18:03;;;;;;;11.85;3.92;;;6.20;99.90;;;;;;6336230;22;20017;-71
2021/12/19 08:20:29;;;;;;;7.63;4.05;;;6.10;99.90;;;;;;6335948;22;20438;-70
2021/12/19 08:22:55;;;;;;;11.90;5.03;;;6.20;99.90;;;;;;6336294;22;19995;-72
2021/12/19 08:25:21;;;;;;;6.93;3.75;;;6.20;99.90;;;;;;6335598;22;20001;-72
2021/12/19 08:27:48;;;;;;;;;;;6.20;99.90;;;;;;6336377;22;20024;-71
2021/12/19 08:30:15;;;;;;;6.70;3.75;;;6.10;99.90;;;;;;6336070;22;19941;-73
2021/12/19 08:32:41;;;;;;;6.13;3.47;;;6.10;99.90;;;;;;6334130;22;20527;-72
2021/12/19 08:35:08;;;;;;;7.63;3.35;;;6.10;99.90;;;;;;6335937;22;19995;-71
2021/12/19 08:37:35;;;;;;;5.90;3.40;;;6.20;99.90;;;;;;6336120;22;20026;-72
2021/12/19 08:40:00;;;;;;;;;;;6.10;99.90;;;;;;6336626;22;19994;-71
2021/12/19 08:42:28;;;;;;;5.50;2.97;;;6.00;99.90;;;;;;6309312;22;19909;-72
2021/12/19 08:44:54;;;;;;;5.82;3.42;;;6.00;99.90;;;;;;6308685;22;19999;-70
2021/12/19 08:47:20;;;;;;;6.82;3.45;;;6.00;99.90;;;;;;6335895;22;20010;-71
2021/12/19 08:49:46;;;;;;;;;;;6.00;99.90;;;;;;6337249;22;20074;-71
2021/12/19 08:52:12;;;;;;;6.70;3.33;;;6.00;99.90;;;;;;6335361;22;20484;-71
2021/12/19 08:54:38;;;;;;;7.68;3.65;;;5.90;99.90;;;;;;6334707;22;20462;-70
2021/12/19 08:57:04;;;;;;;;;;;5.90;99.90;;;;;;6307523;22;20318;-72
2021/12/19 08:59:30;;;;;;;5.80;2.88;;;5.90;99.90;;;;;;6334065;22;20333;-70
2021/12/19 09:01:59;;;;;;;7.05;3.22;;;6.00;99.90;;;;;;6333896;22;19994;-71
2021/12/19 09:04:25;;;;;;;6.95;3.95;;;6.00;99.90;;;;;;6334953;22;20730;-69
2021/12/19 09:06:51;;;;;;;9.93;3.10;;;5.90;99.90;;;;;;6334970;22;20003;-70
2021/12/19 09:09:17;;;;;;;7.90;3.47;;;5.90;99.90;;;;;;6335152;22;20105;-70
2021/12/19 09:11:43;;;;;;;6.35;3.50;;;6.00;99.90;;;;;;6335364;22;19999;-71
2021/12/19 09:14:09;;;;;;;4.93;2.88;;;6.00;99.90;;;;;;6307913;22;19995;-71
2021/12/19 09:16:34;;;;;;;4.68;2.92;;;5.90;99.90;;;;;;6337302;22;20059;-70
2021/12/19 09:19:00;;;;;;;7.57;3.58;;;5.90;99.90;;;;;;6333862;22;20020;-71
2021/12/19 09:21:26;;;;;;;7.43;2.78;;;5.90;99.90;;;;;;6335673;22;19995;-72
2021/12/19 09:23:51;;;;;;;5.88;3.28;;;5.90;99.90;;;;;;6334095;22;19999;-71
2021/12/19 09:26:17;;;;;;;5.18;3.08;;;5.90;99.90;;;;;;6332620;22;20002;-69
2021/12/19 09:28:43;;;;;;;10.70;2.65;;;5.80;99.90;;;;;;6333070;22;20335;-70
2021/12/19 09:31:09;;;;;;;8.18;3.67;;;5.70;99.90;;;;;;6335586;22;20026;-71
2021/12/19 09:33:34;;;;;;;6.32;2.58;;;5.90;99.90;;;;;;6334163;22;20290;-70
2021/12/19 09:36:00;;;;;;;6.32;2.40;;;6.00;99.90;;;;;;6335936;22;19996;-70
2021/12/19 09:38:27;;;;;;;;;;;6.00;99.90;;;;;;6335810;22;19991;-69
2021/12/19 09:41:00;;;;;;;6.93;2.63;;;6.10;99.90;;;;;;6335606;22;19977;-71
2021/12/19 09:43:41;;;;;;;9.65;2.63;;;6.00;99.90;;;;;;6335938;22;20006;-74
2021/12/19 09:46:21;;;;;;;18.77;2.70;;;6.00;99.90;;;;;;6337491;22;20007;-71
2021/12/19 09:48:49;;;;;;;21.30;3.33;;;6.10;99.90;;;;;;6333832;22;20491;-73
2021/12/19 09:51:17;;;;;;;18.02;3.38;;;6.00;99.90;;;;;;6334399;22;19999;-72
2021/12/19 09:53:43;;;;;;;14.82;3.22;;;6.00;99.90;;;;;;6333011;22;20052;-72
2021/12/19 09:56:11;;;;;;;16.15;3.60;;;5.90;99.90;;;;;;6333363;22;19999;-71
2021/12/19 09:58:39;;;;;;;5.47;3.30;;;5.90;99.90;;;;;;6333893;22;20145;-71
2021/12/19 10:01:07;;;;;;;7.85;3.50;;;5.90;99.90;;;;;;6333872;22;19994;-70
2021/12/19 10:03:35;;;;;;;9.32;3.72;;;6.00;99.90;;;;;;6333674;22;19995;-72
2021/12/19 10:06:27;;;;;;;9.68;3.72;;;6.10;99.90;;;;;;6334143;22;20002;-71
2021/12/19 10:09:18;;;;;;;26.23;2.75;;;6.20;99.90;;;;;;6307295;22;20076;-71
2021/12/19 10:12:09;;;;;;;23.35;3.13;;;5.90;99.90;;;;;;6333214;22;20015;-72
2021/12/19 10:14:36;;;;;;;8.02;2.88;;;6.00;99.90;;;;;;6333286;22;20093;-71
2021/12/19 10:17:15;;;;;;;5.30;2.90;;;6.00;99.90;;;;;;6332565;22;20005;-72
2021/12/19 10:19:41;;;;;;;5.43;3.22;;;6.00;99.90;;;;;;6303190;22;20003;-70
2021/12/19 10:22:07;;;;;;;4.55;2.88;;;6.10;99.90;;;;;;6334978;22;19995;-72
2021/12/19 10:24:35;;;;;;;4.90;3.13;;;6.10;99.90;;;;;;6336256;22;20073;-70
2021/12/19 10:27:02;;;;;;;6.63;3.78;;;6.10;99.90;;;;;;6333295;22;20002;-72
2021/12/19 10:29:44;;;;;;;5.40;3.20;;;6.10;99.90;;;;;;6335956;22;20006;-70
2021/12/19 10:32:10;;;;;;;13.02;2.60;;;6.10;99.90;;;;;;6335341;22;20009;-70
2021/12/19 10:34:36;;;;;;;;;;;6.10;99.90;;;;;;6338811;22;19999;-71
2021/12/19 10:37:02;;;;;;;9.05;2.92;;;6.20;99.90;;;;;;6337633;22;19945;-71
2021/12/19 10:39:39;;;;;;;19.75;4.15;;;6.10;99.90;;;;;;6337037;22;20029;-70
2021/12/19 10:42:09;;;;;;;7.28;2.85;;;6.20;99.90;;;;;;6336770;22;20002;-71
2021/12/19 10:47:22;;;;;;;16.38;3.92;;;6.00;99.90;;;;;;6336086;22;20010;-71
2021/12/19 10:49:48;;;;;;;13.10;3.80;;;6.00;99.90;;;;;;6335251;22;20006;-71
2021/12/19 10:52:14;;;;;;;;;;;6.20;99.90;;;;;;6335567;22;20047;-72
2021/12/19 10:54:57;;;;;;;9.20;3.53;;;6.30;99.90;;;;;;6335587;22;19932;-71
2021/12/19 10:57:32;;;;;;;13.63;3.85;;;6.10;99.90;;;;;;6334878;22;20479;-70
2021/12/19 10:59:58;;;;;;;7.88;4.18;;;6.10;99.90;;;;;;6334375;22;20082;-71
2021/12/19 11:02:41;;;;;;;10.43;5.20;;;6.10;99.90;;;;;;6336082;22;19991;-72
2021/12/19 11:05:38;;;;;;;6.88;4.43;;;6.10;99.90;;;;;;6334231;22;20003;-72
2021/12/19 11:08:08;;;;;;;8.23;4.23;;;6.30;99.90;;;;;;6335087;22;19999;-71
2021/12/19 11:10:36;;;;;;;9.90;3.83;;;6.40;99.90;;;;;;6335750;22;20027;-71
2021/12/19 11:13:14;;;;;;;6.32;4.20;;;6.40;99.90;;;;;;6334888;22;20026;-71
2021/12/19 11:15:41;;;;;;;7.25;3.75;;;6.60;99.90;;;;;;6336133;22;20009;-72
2021/12/19 11:18:08;;;;;;;7.10;3.67;;;6.50;99.90;;;;;;6336412;22;20023;-71
2021/12/19 11:20:34;;;;;;;7.10;3.88;;;6.60;99.90;;;;;;6305718;22;20009;-72
2021/12/19 11:23:00;;;;;;;7.72;5.40;;;6.70;99.90;;;;;;6337044;22;19995;-71
2021/12/19 11:25:27;;;;;;;10.27;4.90;;;6.60;99.90;;;;;;6334816;22;19999;-70
2021/12/19 11:27:54;;;;;;;16.05;5.70;;;6.60;99.90;;;;;;6337530;22;20026;-72
2021/12/19 11:30:20;;;;;;;7.32;3.50;;;6.60;99.90;;;;;;6336818;22;20048;-73
2021/12/19 11:33:01;;;;;;;5.97;2.88;;;6.50;99.90;;;;;;6336103;22;20003;-73
2021/12/19 11:35:31;;;;;;;6.18;2.95;;;6.50;99.90;;;;;;6335778;22;20003;-72
2021/12/19 11:38:04;;;;;;;5.10;3.03;;;6.60;99.90;;;;;;6336757;22;20406;-72
2021/12/19 11:40:35;;;;;;;5.15;3.10;;;6.70;99.90;;;;;;6335615;22;20003;-71
2021/12/19 11:43:06;;;;;;;7.00;2.97;;;6.70;99.90;;;;;;6336813;22;20426;-73
2021/12/19 11:48:18;;;;;;;9.70;2.88;;;6.70;99.90;;;;;;6339647;22;20393;-71
2021/12/19 11:50:52;;;;;;;8.02;3.63;;;6.70;99.90;;;;;;6306550;22;20010;-71
2021/12/19 11:53:18;;;;;;;8.75;3.15;;;6.80;99.90;;;;;;6333914;22;20026;-71
2021/12/19 11:55:47;;;;;;;6.70;2.97;;;6.90;99.90;;;;;;6333216;22;20003;-71
2021/12/19 11:58:35;;;;;;;3.85;2.63;;;7.10;99.90;;;;;;6333025;22;20046;-71
2021/12/19 12:01:02;;;;;;;8.52;3.10;;;7.20;99.90;;;;;;6332620;22;20059;-72
2021/12/19 12:03:34;;;;;;;4.00;2.55;;;7.20;99.90;;;;;;6335256;22;19994;-73
2021/12/19 12:06:09;;;;;;;12.30;4.90;;;7.10;99.90;;;;;;6333735;22;20047;-70
2021/12/19 12:08:35;;;;;;;8.10;3.38;;;7.00;99.90;;;;;;6333348;22;20033;-70
2021/12/19 12:11:01;;;;;;;5.13;3.00;;;7.10;99.90;;;;;;6333867;22;20483;-72
2021/12/19 12:13:35;;;;;;;9.85;2.78;;;7.20;99.90;;;;;;6333439;22;19999;-71
2021/12/19 12:16:33;;;;;;;2.75;2.17;;;7.20;99.90;;;;;;6334621;22;20030;-71
2021/12/19 12:19:02;;;;;;;2.85;2.00;;;7.20;99.90;;;;;;6336190;22;20014;-72
2021/12/19 12:24:20;;;;;;;2.25;1.50;;;7.20;99.90;;;;;;6333678;22;20013;-69
2021/12/19 12:27:02;;;;;;;4.40;2.10;;;7.30;99.90;;;;;;6335865;22;20005;-72
2021/12/19 12:29:28;;;;;;;9.68;2.00;;;7.40;99.90;;;;;;6336598;22;20003;-73
2021/12/19 12:31:54;;;;;;;2.33;1.90;;;7.30;99.90;;;;;;6334649;22;20007;-71
2021/12/19 12:34:20;;;;;;;3.25;2.30;;;7.20;99.90;;;;;;6308476;22;20320;-74
2021/12/19 12:36:47;;;;;;;2.97;2.47;;;7.30;99.90;;;;;;6334881;22;20406;-73
2021/12/19 12:39:22;;;;;;;4.35;2.58;;;7.20;99.90;;;;;;6334242;22;20044;-72
2021/12/19 12:41:58;;;;;;;6.97;2.95;;;7.10;99.90;;;;;;6307058;22;20006;-75
2021/12/19 12:44:23;;;;;;;4.80;2.77;;;7.10;99.90;;;;;;6332338;22;20039;-73
2021/12/19 12:46:52;;;;;;;3.58;2.63;;;7.10;99.90;;;;;;6304880;22;20322;-72
2021/12/19 12:49:28;;;;;;;6.43;3.47;;;7.10;99.90;;;;;;6332957;22;19999;-72
2021/12/19 12:51:57;;;;;;;4.60;3.50;;;7.10;99.90;;;;;;6332596;22;20073;-73
2021/12/19 12:54:33;;;;;;;5.45;3.38;;;7.00;99.90;;;;;;6332659;22;19995;-71
2021/12/19 12:57:00;;;;;;;5.35;3.38;;;7.00;99.90;;;;;;6333341;22;20006;-72
2021/12/19 12:59:32;;;;;;;6.78;3.50;;;7.10;99.90;;;;;;6303356;22;20086;-71
2021/12/19 13:02:15;;;;;;;6.25;3.80;;;7.30;99.90;;;;;;6332083;22;20022;-72
2021/12/19 13:04:47;;;;;;;12.23;3.83;;;7.20;99.90;;;;;;6331108;22;20011;-71
2021/12/19 13:07:19;;;;;;;9.75;4.43;;;7.30;99.90;;;;;;6330782;22;20003;-70
2021/12/19 13:09:54;;;;;;;6.25;3.80;;;7.40;99.90;;;;;;6332346;22;19998;-71
2021/12/19 13:12:25;;;;;;;12.40;4.40;;;7.30;99.90;;;;;;6333479;22;19999;-71
2021/12/19 13:15:02;;;;;;;6.97;4.43;;;7.30;99.90;;;;;;6333982;22;20052;-71
2021/12/19 13:17:41;;;;;;;9.77;5.45;;;7.20;99.90;;;;;;6307876;22;20006;-72
2021/12/19 13:20:10;;;;;;;13.85;10.00;;;7.30;99.90;;;;;;6332560;22;20549;-71
2021/12/19 13:22:38;;;;;;;12.48;6.82;;;7.40;99.90;;;;;;6333885;22;20493;-73
2021/12/19 13:25:12;;;;;;;10.15;7.40;;;7.40;99.90;;;;;;6332754;22;20016;-71
2021/12/19 13:27:42;;;;;;;7.28;4.88;;;7.30;99.90;;;;;;6333915;22;20332;-71
2021/12/19 13:30:11;;;;;;;8.68;4.57;;;7.30;99.90;;;;;;6333975;22;20076;-72
2021/12/19 13:32:38;;;;;;;9.10;4.85;;;7.30;99.90;;;;;;6331818;22;19999;-72
2021/12/19 13:35:13;;;;;;;6.43;4.03;;;7.40;99.90;;;;;;6331784;22;20457;-73
2021/12/19 13:38:15;;;;;;;6.88;4.35;;;7.30;99.90;;;;;;6305907;22;20022;-72
2021/12/19 13:40:43;;;;;;;5.55;4.35;;;7.50;99.90;;;;;;6306547;22;20057;-71
2021/12/19 13:43:11;;;;;;;5.35;4.28;;;7.50;99.90;;;;;;6333574;22;20052;-71
2021/12/19 13:45:52;;;;;;;7.53;4.93;;;7.60;99.90;;;;;;6329251;22;20006;-71
2021/12/19 13:48:25;;;;;;;6.70;5.07;;;7.60;99.90;;;;;;6335655;22;20007;-69
2021/12/19 13:50:58;;;;;;;6.72;4.80;;;7.60;99.90;;;;;;6332149;22;20059;-71
2021/12/19 13:53:26;;;;;;;8.25;4.80;;;7.60;99.90;;;;;;6334053;22;20330;-71
2021/12/19 13:56:23;;;;;;;6.82;4.70;;;7.60;99.90;;;;;;6331900;22;19995;-72
2021/12/19 13:58:55;;;;;;;12.05;5.18;;;7.60;99.90;;;;;;6330079;22;20093;-70
2021/12/19 14:01:30;;;;;;;11.80;5.72;;;7.50;99.90;;;;;;6330188;22;20010;-71
2021/12/19 14:04:14;;;;;;;5.60;4.43;;;7.40;99.90;;;;;;6302525;22;20030;-72
2021/12/19 14:06:40;;;;;;;5.68;4.47;;;7.60;99.90;;;;;;6329519;22;20071;-73
2021/12/19 14:09:17;;;;;;;6.93;4.70;;;7.50;99.90;;;;;;6329705;22;20109;-71
2021/12/19 14:11:45;;;;;;;5.70;4.20;;;7.50;99.90;;;;;;6329653;22;20049;-72
2021/12/19 14:14:28;;;;;;;6.45;4.38;;;7.40;99.90;;;;;;6329424;22;20003;-73
2021/12/19 14:17:07;;;;;;;7.70;5.20;;;7.30;99.90;;;;;;6335299;22;20041;-71
2021/12/19 14:19:34;;;;;;;4.70;4.03;;;7.50;99.90;;;;;;6333255;22;20022;-71
2021/12/19 14:22:05;;;;;;;7.00;5.05;;;7.50;99.90;;;;;;6306735;22;20030;-72
2021/12/19 14:24:44;;;;;;;6.63;4.82;;;7.50;99.90;;;;;;6334349;22;20025;-72